Time;durP1;ratioP1;P1;durP2;ratioP2;P2;SDS_P1;SDS_P2;PMS_P1;PMS_P2;Temp;Humidity;BMP_temperature;BMP_pressure;BME280_temperature;BME280_humidity;BME280_pressure;Samples;Min_cycle;Max_cycle;Signal;HPM_P1;HPM_P2
2021/03/10 00:00:52;;;;;;;25.70;13.85;;;1.50;99.90;;;;;;2079658;28;20180;-65
2021/03/10 00:01:53;;;;;;;23.03;15.03;;;1.50;99.90;;;;;;2080696;28;20227;-66
2021/03/10 00:02:53;;;;;;;25.10;15.50;;;1.50;99.90;;;;;;2089487;28;20250;-65
2021/03/10 00:03:54;;;;;;;23.90;15.33;;;1.50;99.90;;;;;;2089530;28;20210;-65
2021/03/10 00:04:55;;;;;;;27.30;15.83;;;1.40;99.90;;;;;;2089255;28;20203;-66
2021/03/10 00:05:55;;;;;;;24.60;15.77;;;1.50;99.90;;;;;;2080432;28;20583;-66
2021/03/10 00:06:56;;;;;;;28.60;17.17;;;1.50;99.90;;;;;;2080377;28;20184;-65
2021/03/10 00:07:57;;;;;;;26.30;16.23;;;1.50;99.90;;;;;;2089559;28;20183;-65
2021/03/10 00:08:57;;;;;;;27.37;15.87;;;1.60;99.90;;;;;;2089378;28;20175;-65
2021/03/10 00:09:59;;;;;;;25.77;16.97;;;1.60;99.90;;;;;;2080507;28;20687;-65
2021/03/10 00:10:59;;;;;;;25.38;15.93;;;1.60;99.90;;;;;;2079722;28;20734;-65
2021/03/10 00:12:00;;;;;;;24.57;15.50;;;1.60;99.90;;;;;;2089547;28;20187;-65
2021/03/10 00:13:01;;;;;;;25.57;16.50;;;1.60;99.90;;;;;;2089243;28;20188;-65
2021/03/10 00:14:01;;;;;;;25.80;14.90;;;1.50;99.90;;;;;;2089209;28;20187;-65
2021/03/10 00:15:04;;;;;;;27.80;16.50;;;1.60;99.90;;;;;;2080102;28;20259;-65
2021/03/10 00:16:06;;;;;;;24.85;15.57;;;1.60;99.90;;;;;;2080514;28;20181;-65
2021/03/10 00:17:06;;;;;;;26.55;16.00;;;1.60;99.90;;;;;;2089114;28;20188;-66
2021/03/10 00:18:07;;;;;;;25.53;15.57;;;1.60;99.90;;;;;;2089300;28;20229;-65
2021/03/10 00:19:08;;;;;;;23.53;15.13;;;1.60;99.90;;;;;;2089208;28;20597;-65
2021/03/10 00:20:11;;;;;;;27.23;16.13;;;1.70;99.90;;;;;;2089311;28;20264;-65
2021/03/10 00:21:11;;;;;;;24.98;15.77;;;1.70;99.90;;;;;;2079701;28;20211;-65
2021/03/10 00:22:12;;;;;;;24.27;15.43;;;1.80;99.90;;;;;;2072021;28;20245;-65
2021/03/10 00:23:13;;;;;;;24.40;15.60;;;1.70;99.90;;;;;;2080382;28;20233;-65
2021/03/10 00:24:13;;;;;;;24.00;15.73;;;1.70;99.90;;;;;;2080621;28;20934;-65
2021/03/10 00:25:15;;;;;;;24.80;16.07;;;1.70;99.90;;;;;;2089246;28;20230;-65
2021/03/10 00:26:15;;;;;;;19.35;13.43;;;1.70;99.90;;;;;;2089276;28;20187;-65
2021/03/10 00:27:25;;;;;;;23.47;15.83;;;1.70;99.90;;;;;;2089022;28;20577;-65
2021/03/10 00:28:26;;;;;;;24.27;14.60;;;1.80;99.90;;;;;;2089236;28;20167;-65
2021/03/10 00:29:26;;;;;;;25.07;15.33;;;1.80;99.90;;;;;;2089204;28;20203;-65
2021/03/10 00:30:27;;;;;;;23.93;15.73;;;1.80;99.90;;;;;;2089004;28;20198;-65
2021/03/10 00:31:28;;;;;;;22.13;15.27;;;1.80;99.90;;;;;;2088631;28;20771;-65
2021/03/10 00:32:29;;;;;;;22.43;15.17;;;1.90;99.90;;;;;;2080730;28;20314;-65
2021/03/10 00:33:29;;;;;;;26.13;15.87;;;1.90;99.90;;;;;;2081903;28;20200;-65
2021/03/10 00:34:30;;;;;;;25.07;15.73;;;1.90;99.90;;;;;;2090705;28;20236;-65
2021/03/10 00:35:31;;;;;;;20.43;14.50;;;1.90;99.90;;;;;;2081679;28;20300;-65
2021/03/10 00:36:31;;;;;;;23.77;15.77;;;1.90;99.90;;;;;;2082096;28;20668;-65
2021/03/10 00:37:32;;;;;;;23.03;15.70;;;1.90;99.90;;;;;;2090825;28;20180;-65
2021/03/10 00:38:33;;;;;;;22.03;14.80;;;1.90;99.90;;;;;;2090894;28;20172;-65
2021/03/10 00:39:33;;;;;;;21.60;14.70;;;1.90;99.90;;;;;;2090935;28;20176;-65
2021/03/10 00:40:34;;;;;;;24.13;14.77;;;1.80;99.90;;;;;;2090695;28;20264;-65
2021/03/10 00:41:35;;;;;;;23.43;13.93;;;1.90;99.90;;;;;;2090420;28;20263;-65
2021/03/10 00:42:35;;;;;;;23.30;15.03;;;1.90;99.90;;;;;;2090669;28;20694;-65
2021/03/10 00:43:36;;;;;;;22.40;14.90;;;1.90;99.90;;;;;;2090641;28;20204;-65
2021/03/10 00:44:37;;;;;;;23.23;15.10;;;2.00;99.90;;;;;;2090605;28;20184;-65
2021/03/10 00:45:38;;;;;;;23.30;14.85;;;1.90;99.90;;;;;;2090781;28;20187;-64
2021/03/10 00:46:38;;;;;;;26.00;16.40;;;1.90;99.90;;;;;;2090617;28;20183;-65
2021/03/10 00:47:39;;;;;;;23.83;16.07;;;1.90;99.90;;;;;;2090882;28;20180;-65
2021/03/10 00:48:40;;;;;;;25.47;16.33;;;1.80;99.90;;;;;;2090534;28;20176;-64
2021/03/10 00:49:42;;;;;;;27.07;15.97;;;1.80;99.90;;;;;;2090694;28;20177;-64
2021/03/10 00:50:43;;;;;;;27.48;15.80;;;1.80;99.90;;;;;;2090367;28;20665;-64
2021/03/10 00:51:44;;;;;;;25.93;16.27;;;1.80;99.90;;;;;;2090442;28;20183;-64
2021/03/10 00:52:45;;;;;;;22.73;15.57;;;1.90;99.90;;;;;;2090682;28;20234;-64
2021/03/10 00:53:45;;;;;;;24.85;15.23;;;1.80;99.90;;;;;;2090878;28;20184;-64
2021/03/10 00:54:46;;;;;;;27.17;15.30;;;1.80;99.90;;;;;;2090220;28;20253;-65
2021/03/10 00:55:47;;;;;;;24.23;15.37;;;1.80;99.90;;;;;;2090922;28;20196;-64
2021/03/10 00:56:48;;;;;;;24.83;16.00;;;1.80;99.90;;;;;;2090566;28;20176;-65
2021/03/10 00:57:49;;;;;;;26.20;15.13;;;1.80;99.90;;;;;;2090676;28;20176;-65
2021/03/10 00:58:50;;;;;;;23.47;15.70;;;1.70;99.90;;;;;;2090657;28;20225;-64
2021/03/10 00:59:51;;;;;;;24.75;16.27;;;1.70;99.90;;;;;;2090690;28;20208;-64
2021/03/10 01:00:51;;;;;;;25.00;15.10;;;1.70;99.90;;;;;;2089926;28;20184;-64
2021/03/10 01:01:52;;;;;;;23.57;14.53;;;1.70;99.90;;;;;;2090725;28;20181;-64
2021/03/10 01:02:53;;;;;;;25.80;15.68;;;1.70;99.90;;;;;;2090198;28;20203;-64
2021/03/10 01:03:53;;;;;;;27.53;15.67;;;1.70;99.90;;;;;;2090753;28;20180;-64
2021/03/10 01:04:54;;;;;;;26.30;16.23;;;1.60;99.90;;;;;;2081468;28;20675;-65
2021/03/10 01:05:55;;;;;;;27.47;16.03;;;1.60;99.90;;;;;;2082147;28;20829;-64
2021/03/10 01:06:56;;;;;;;25.02;15.85;;;1.50;99.90;;;;;;2090608;28;20196;-64
2021/03/10 01:07:56;;;;;;;26.23;15.63;;;1.50;99.90;;;;;;2090620;28;20187;-64
2021/03/10 01:08:57;;;;;;;24.23;15.17;;;1.40;99.90;;;;;;2090541;28;20659;-64
2021/03/10 01:09:58;;;;;;;26.73;15.97;;;1.40;99.90;;;;;;2090614;28;20271;-64
2021/03/10 01:10:58;;;;;;;24.37;15.70;;;1.40;99.90;;;;;;2089920;28;20216;-64
2021/03/10 01:11:59;;;;;;;26.83;16.80;;;1.40;99.90;;;;;;2090789;28;20271;-64
2021/03/10 01:13:00;;;;;;;25.83;15.90;;;1.40;99.90;;;;;;2090502;28;20184;-64
2021/03/10 01:14:01;;;;;;;28.47;16.17;;;1.40;99.90;;;;;;2090698;28;20181;-64
2021/03/10 01:15:08;;;;;;;29.13;16.85;;;1.40;99.90;;;;;;2090303;28;20738;-64
2021/03/10 01:16:08;;;;;;;28.50;15.80;;;1.30;99.90;;;;;;2090393;28;20531;-65
2021/03/10 01:17:09;;;;;;;25.30;15.63;;;1.30;99.90;;;;;;2090505;28;20186;-64
2021/03/10 01:18:10;;;;;;;31.70;17.13;;;1.30;99.90;;;;;;2090577;28;20191;-64
2021/03/10 01:19:11;;;;;;;26.33;15.87;;;1.40;99.90;;;;;;2090584;28;20199;-64
2021/03/10 01:20:16;;;;;;;25.43;15.20;;;1.40;99.90;;;;;;2081893;28;20279;-64
2021/03/10 01:21:16;;;;;;;27.83;15.95;;;1.40;99.90;;;;;;2081445;28;20657;-64
2021/03/10 01:22:18;;;;;;;23.23;15.57;;;1.40;99.90;;;;;;2090246;28;20181;-64
2021/03/10 01:23:19;;;;;;;26.17;15.40;;;1.40;99.90;;;;;;2090322;28;20232;-64
2021/03/10 01:24:20;;;;;;;25.60;15.43;;;1.40;99.90;;;;;;2090243;28;20658;-64
2021/03/10 01:25:21;;;;;;;23.83;14.53;;;1.40;99.90;;;;;;2090339;28;20671;-65
2021/03/10 01:26:22;;;;;;;23.83;14.88;;;1.50;99.90;;;;;;2090045;28;20236;-65
2021/03/10 01:27:22;;;;;;;24.60;15.33;;;1.50;99.90;;;;;;2090405;28;20187;-65
2021/03/10 01:28:23;;;;;;;22.23;14.13;;;1.50;99.90;;;;;;2090119;28;20180;-65
2021/03/10 01:29:24;;;;;;;24.90;14.90;;;1.60;99.90;;;;;;2090431;28;20230;-64
2021/03/10 01:30:25;;;;;;;22.97;14.47;;;1.60;99.90;;;;;;2089939;28;20277;-66
2021/03/10 01:31:25;;;;;;;22.17;14.53;;;1.60;99.90;;;;;;2080785;28;20208;-64
2021/03/10 01:32:26;;;;;;;22.10;13.93;;;1.60;99.90;;;;;;2081241;28;20290;-65
2021/03/10 01:33:27;;;;;;;23.00;13.43;;;1.60;99.90;;;;;;2090443;28;20718;-65
2021/03/10 01:34:28;;;;;;;19.88;12.98;;;1.70;99.90;;;;;;2081352;28;20176;-65
2021/03/10 01:35:28;;;;;;;20.20;13.47;;;1.70;99.90;;;;;;2081358;28;20299;-65
2021/03/10 01:36:29;;;;;;;21.23;13.47;;;1.70;99.90;;;;;;2090284;28;20183;-64
2021/03/10 01:37:30;;;;;;;20.60;13.30;;;1.70;99.90;;;;;;2090165;28;20652;-65
2021/03/10 01:38:31;;;;;;;22.37;12.77;;;1.70;99.90;;;;;;2090113;28;20231;-64
2021/03/10 01:39:31;;;;;;;22.80;13.87;;;1.70;99.90;;;;;;2090298;28;20466;-64
2021/03/10 01:40:33;;;;;;;21.33;12.70;;;1.80;99.90;;;;;;2090206;28;20225;-64
2021/03/10 01:41:35;;;;;;;21.58;13.15;;;1.80;99.90;;;;;;2089622;28;20183;-65
2021/03/10 01:42:36;;;;;;;24.65;13.82;;;1.80;99.90;;;;;;2089722;28;20617;-64
2021/03/10 01:43:38;;;;;;;20.08;13.75;;;1.80;99.90;;;;;;2097056;28;20222;-64
2021/03/10 01:44:39;;;;;;;21.30;14.27;;;1.80;99.90;;;;;;2097486;28;20188;-65
2021/03/10 01:45:40;;;;;;;19.10;13.10;;;1.80;99.90;;;;;;2098580;28;20650;-65
2021/03/10 01:46:42;;;;;;;21.98;14.50;;;1.90;99.90;;;;;;2089407;28;20250;-65
2021/03/10 01:47:46;;;;;;;22.48;14.43;;;1.90;99.90;;;;;;2089764;28;20180;-65
2021/03/10 01:48:47;;;;;;;21.17;13.27;;;1.90;99.90;;;;;;2098126;28;20660;-64
2021/03/10 01:49:48;;;;;;;22.75;14.10;;;1.90;99.90;;;;;;2098626;28;20187;-66
2021/03/10 01:50:49;;;;;;;19.93;13.23;;;1.90;99.90;;;;;;2097839;28;20667;-64
2021/03/10 01:51:50;;;;;;;20.13;13.53;;;1.90;99.90;;;;;;2098573;28;20207;-65
2021/03/10 01:52:54;;;;;;;19.90;13.17;;;1.90;99.90;;;;;;2089390;28;20223;-65
2021/03/10 01:53:55;;;;;;;21.80;13.60;;;1.90;99.90;;;;;;2081750;28;20376;-64
2021/03/10 01:54:56;;;;;;;21.55;13.80;;;1.90;99.90;;;;;;2081115;28;20227;-65
2021/03/10 01:55:57;;;;;;;20.17;13.53;;;1.90;99.90;;;;;;2089587;28;20210;-65
2021/03/10 01:56:58;;;;;;;20.23;13.73;;;1.80;99.90;;;;;;2089349;28;20302;-65
2021/03/10 01:57:59;;;;;;;22.65;14.48;;;1.80;99.90;;;;;;2089509;28;20184;-65
2021/03/10 01:58:59;;;;;;;20.43;13.13;;;1.80;99.90;;;;;;2089150;28;20176;-65
2021/03/10 02:00:01;;;;;;;22.53;14.10;;;1.90;99.90;;;;;;2089528;28;20624;-65
2021/03/10 02:01:02;;;;;;;26.92;14.93;;;1.90;99.90;;;;;;2097458;28;20191;-65
2021/03/10 02:02:02;;;;;;;23.23;14.53;;;1.90;99.90;;;;;;2098338;28;20267;-64
2021/03/10 02:03:03;;;;;;;21.93;14.53;;;1.90;99.90;;;;;;2098082;28;20635;-64
2021/03/10 02:04:06;;;;;;;24.10;14.40;;;1.90;99.90;;;;;;2098439;28;20176;-65
2021/03/10 02:05:12;;;;;;;25.05;15.85;;;2.00;99.90;;;;;;2089111;28;20709;-64
2021/03/10 02:06:30;;;;;;;21.23;14.25;;;2.00;99.90;;;;;;2090546;28;20183;-65
2021/03/10 02:08:22;;;;;;;23.58;14.85;;;1.90;99.90;;;;;;2089303;28;20793;-64
2021/03/10 02:10:01;;;;;;;23.88;14.70;;;2.00;99.90;;;;;;2096729;28;20230;-64
2021/03/10 02:11:23;;;;;;;26.90;15.55;;;2.00;99.90;;;;;;2097742;28;20177;-65
2021/03/10 02:12:36;;;;;;;23.02;14.43;;;1.90;99.90;;;;;;2098382;28;20186;-65
2021/03/10 02:14:04;;;;;;;24.52;15.05;;;1.90;99.90;;;;;;2089385;28;20176;-65
2021/03/10 02:15:12;;;;;;;23.75;14.82;;;2.00;99.90;;;;;;2084304;28;20710;-64
2021/03/10 02:16:39;;;;;;;25.10;15.20;;;2.10;99.90;;;;;;2082158;28;20180;-65
2021/03/10 02:17:50;;;;;;;29.60;15.65;;;2.00;99.90;;;;;;2093087;28;20164;-65
2021/03/10 02:19:16;;;;;;;29.23;17.13;;;2.00;99.90;;;;;;2098213;28;20193;-65
2021/03/10 02:20:33;;;;;;;28.25;16.48;;;2.00;99.90;;;;;;2089305;28;20187;-65
2021/03/10 02:21:57;;;;;;;26.92;15.88;;;2.00;99.90;;;;;;2082655;28;20704;-65
2021/03/10 02:23:28;;;;;;;28.65;16.27;;;2.00;99.90;;;;;;2084289;28;20172;-65
2021/03/10 02:24:46;;;;;;;27.30;15.80;;;2.00;99.90;;;;;;2093662;28;20583;-65
2021/03/10 02:26:50;;;;;;;27.27;16.88;;;2.00;99.90;;;;;;2097938;28;20553;-65
2021/03/10 02:27:55;;;;;;;27.45;15.38;;;2.00;99.90;;;;;;2087899;28;20312;-65
2021/03/10 02:29:05;;;;;;;31.85;17.30;;;2.00;99.90;;;;;;2097992;28;20282;-65
2021/03/10 02:30:18;;;;;;;29.95;17.30;;;2.00;99.90;;;;;;2098184;28;20171;-65
2021/03/10 02:31:19;;;;;;;28.17;17.42;;;2.10;99.90;;;;;;2088415;28;20225;-66
2021/03/10 02:32:20;;;;;;;30.85;18.23;;;2.10;99.90;;;;;;2089145;28;20866;-65
2021/03/10 02:33:25;;;;;;;31.97;18.53;;;2.10;99.90;;;;;;2089195;28;20180;-65
2021/03/10 02:34:28;;;;;;;30.92;18.92;;;2.10;99.90;;;;;;2089715;28;20435;-65
2021/03/10 02:35:30;;;;;;;33.33;19.85;;;2.10;99.90;;;;;;2088954;28;20219;-65
2021/03/10 02:36:33;;;;;;;35.33;20.15;;;2.10;99.90;;;;;;2089070;28;20185;-65
2021/03/10 02:37:36;;;;;;;32.17;20.05;;;2.10;99.90;;;;;;2089382;28;20181;-65
2021/03/10 02:38:47;;;;;;;33.53;20.25;;;2.10;99.90;;;;;;2097920;28;20286;-66
2021/03/10 02:39:49;;;;;;;30.92;18.60;;;2.10;99.90;;;;;;2089353;28;20251;-65
2021/03/10 02:40:53;;;;;;;34.25;19.75;;;2.10;99.90;;;;;;2088505;28;20744;-65
2021/03/10 02:41:54;;;;;;;37.15;20.88;;;2.10;99.90;;;;;;2097893;28;20191;-65
2021/03/10 02:42:56;;;;;;;34.88;20.75;;;2.20;99.90;;;;;;2097827;28;20251;-65
2021/03/10 02:43:58;;;;;;;37.08;20.42;;;2.20;99.90;;;;;;2097980;28;20245;-65
2021/03/10 02:44:59;;;;;;;35.83;20.55;;;2.20;99.90;;;;;;2097960;28;20287;-65
2021/03/10 02:46:03;;;;;;;36.08;21.70;;;2.20;99.90;;;;;;2089273;28;20184;-65
2021/03/10 02:47:04;;;;;;;35.50;21.27;;;2.20;99.90;;;;;;2089292;28;20725;-66
2021/03/10 02:48:06;;;;;;;39.55;23.23;;;2.20;99.90;;;;;;2098001;28;20187;-65
2021/03/10 02:49:08;;;;;;;36.63;21.63;;;2.20;99.90;;;;;;2088979;28;20557;-65
2021/03/10 02:50:12;;;;;;;39.65;23.08;;;2.10;99.90;;;;;;2089220;28;20192;-66
2021/03/10 02:51:16;;;;;;;38.33;22.63;;;2.20;99.90;;;;;;2097247;28;20240;-65
2021/03/10 02:52:18;;;;;;;40.13;23.20;;;2.20;99.90;;;;;;2089237;28;20195;-65
2021/03/10 02:53:19;;;;;;;38.15;23.13;;;2.20;99.90;;;;;;2080705;28;20579;-65
2021/03/10 02:54:19;;;;;;;40.10;23.43;;;2.20;99.90;;;;;;2089202;28;20187;-65
2021/03/10 02:55:20;;;;;;;40.60;23.97;;;2.20;99.90;;;;;;2097214;28;20875;-65
2021/03/10 02:56:22;;;;;;;41.97;23.77;;;2.20;99.90;;;;;;2098108;28;20184;-65
2021/03/10 02:57:24;;;;;;;38.40;23.05;;;2.20;99.90;;;;;;2089010;28;20219;-65
2021/03/10 02:58:24;;;;;;;39.78;23.70;;;2.20;99.90;;;;;;2080938;28;20173;-65
2021/03/10 02:59:27;;;;;;;42.73;23.73;;;2.10;99.90;;;;;;2080782;28;20589;-65
2021/03/10 03:00:30;;;;;;;43.72;23.63;;;2.10;99.90;;;;;;2081247;28;20181;-65
2021/03/10 03:01:30;;;;;;;37.58;23.33;;;2.10;99.90;;;;;;2080271;28;20181;-65
2021/03/10 03:02:31;;;;;;;41.63;23.00;;;2.10;99.90;;;;;;2085253;28;20234;-65
2021/03/10 03:03:32;;;;;;;37.87;23.27;;;2.10;99.90;;;;;;2097713;28;20589;-65
2021/03/10 03:04:32;;;;;;;36.90;22.03;;;2.10;99.90;;;;;;2097964;28;20186;-65
2021/03/10 03:05:35;;;;;;;40.93;24.03;;;2.10;99.90;;;;;;2097733;28;20222;-65
2021/03/10 03:06:35;;;;;;;37.45;22.77;;;2.10;99.90;;;;;;2097926;28;20206;-65
2021/03/10 03:07:41;;;;;;;43.47;22.30;;;2.10;99.90;;;;;;2097919;28;20210;-65
2021/03/10 03:08:42;;;;;;;39.15;22.73;;;2.10;99.90;;;;;;2089022;28;20190;-65
2021/03/10 03:09:42;;;;;;;39.22;23.48;;;2.10;99.90;;;;;;2088764;28;20187;-65
2021/03/10 03:10:43;;;;;;;41.63;23.87;;;2.10;99.90;;;;;;2088710;28;20698;-65
2021/03/10 03:11:44;;;;;;;39.20;22.10;;;2.10;99.90;;;;;;2080188;28;20184;-65
2021/03/10 03:12:46;;;;;;;41.30;23.77;;;2.00;99.90;;;;;;2089017;28;20188;-65
2021/03/10 03:13:47;;;;;;;41.15;23.42;;;2.10;99.90;;;;;;2088820;28;20666;-65
2021/03/10 03:14:48;;;;;;;40.35;23.40;;;2.10;99.90;;;;;;2080210;28;20193;-65
2021/03/10 03:15:54;;;;;;;41.55;23.73;;;2.20;99.90;;;;;;2088971;28;20566;-65
2021/03/10 03:16:54;;;;;;;43.40;24.10;;;2.10;99.90;;;;;;2089521;28;20189;-65
2021/03/10 03:17:56;;;;;;;38.90;22.50;;;2.10;99.90;;;;;;2098000;28;20198;-65
2021/03/10 03:18:57;;;;;;;38.78;23.20;;;2.10;99.90;;;;;;2088991;28;20200;-65
2021/03/10 03:19:58;;;;;;;38.97;23.47;;;2.20;99.90;;;;;;2088933;28;20180;-65
2021/03/10 03:21:02;;;;;;;38.30;22.10;;;2.10;99.90;;;;;;2096969;28;20685;-65
2021/03/10 03:22:04;;;;;;;38.05;23.48;;;2.20;99.90;;;;;;2097808;28;20187;-65
2021/03/10 03:23:07;;;;;;;36.13;22.30;;;2.10;99.90;;;;;;2088687;28;20639;-65
2021/03/10 03:24:09;;;;;;;40.80;22.08;;;2.20;99.90;;;;;;2097343;28;20194;-65
2021/03/10 03:25:33;;;;;;;42.92;24.20;;;2.20;99.90;;;;;;2104971;28;20212;-65
2021/03/10 03:26:34;;;;;;;43.58;24.10;;;2.30;99.90;;;;;;2096767;28;20274;-65
2021/03/10 03:27:35;;;;;;;37.50;22.90;;;2.20;99.90;;;;;;2097498;28;20270;-66
2021/03/10 03:28:37;;;;;;;40.63;23.53;;;2.30;99.90;;;;;;2097674;28;20212;-65
2021/03/10 03:29:38;;;;;;;39.45;23.73;;;2.30;99.90;;;;;;2088592;28;20798;-65
2021/03/10 03:30:40;;;;;;;38.35;23.33;;;2.30;99.90;;;;;;2088664;28;20274;-65
2021/03/10 03:31:41;;;;;;;46.92;25.42;;;2.30;99.90;;;;;;2096245;28;20179;-66
2021/03/10 03:32:43;;;;;;;37.88;22.77;;;2.30;99.90;;;;;;2097122;28;20211;-65
2021/03/10 03:33:44;;;;;;;43.50;24.67;;;2.30;99.90;;;;;;2088611;28;20582;-65
2021/03/10 03:34:45;;;;;;;44.38;25.33;;;2.30;99.90;;;;;;2088778;28;20698;-65
2021/03/10 03:35:51;;;;;;;45.70;25.67;;;2.30;99.90;;;;;;2088610;28;20262;-65
2021/03/10 03:36:53;;;;;;;46.83;27.70;;;2.30;99.90;;;;;;2089476;28;20160;-65
2021/03/10 03:37:55;;;;;;;46.70;26.40;;;2.20;99.90;;;;;;2096787;28;20268;-65
2021/03/10 03:38:55;;;;;;;49.03;26.40;;;2.20;99.90;;;;;;2096990;28;20180;-65
2021/03/10 03:39:56;;;;;;;51.70;26.83;;;2.10;99.90;;;;;;2088538;28;20179;-65
2021/03/10 03:40:57;;;;;;;46.00;25.33;;;2.10;99.90;;;;;;2096323;28;20211;-65
2021/03/10 03:41:59;;;;;;;51.70;27.73;;;2.10;99.90;;;;;;2105082;28;20178;-65
2021/03/10 03:43:00;;;;;;;47.50;25.88;;;2.10;99.90;;;;;;2088686;28;20176;-65
2021/03/10 03:44:03;;;;;;;47.92;26.48;;;2.10;99.90;;;;;;2097135;28;20233;-65
2021/03/10 03:45:05;;;;;;;45.63;25.83;;;2.10;99.90;;;;;;2105271;28;20203;-65
2021/03/10 03:46:06;;;;;;;45.03;25.05;;;2.10;99.90;;;;;;2088581;28;20626;-65
2021/03/10 03:47:07;;;;;;;49.20;26.40;;;2.10;99.90;;;;;;2088618;28;20212;-65
2021/03/10 03:48:08;;;;;;;45.87;25.03;;;2.10;99.90;;;;;;2097502;28;20624;-65
2021/03/10 03:49:08;;;;;;;43.80;24.33;;;2.10;99.90;;;;;;2097545;28;20180;-65
2021/03/10 03:50:11;;;;;;;47.07;27.47;;;2.10;99.90;;;;;;2097517;28;20183;-64
2021/03/10 03:51:28;;;;;;;44.95;26.02;;;2.10;99.90;;;;;;2096954;28;20194;-65
2021/03/10 03:52:28;;;;;;;44.03;24.80;;;2.10;99.90;;;;;;2096968;28;20198;-65
2021/03/10 03:53:29;;;;;;;45.17;26.10;;;2.10;99.90;;;;;;2097562;28;20562;-66
2021/03/10 03:54:30;;;;;;;47.00;27.20;;;2.10;99.90;;;;;;2097515;28;20183;-65
2021/03/10 03:55:31;;;;;;;45.93;25.80;;;2.10;99.90;;;;;;2097231;28;20202;-65
2021/03/10 03:56:32;;;;;;;44.40;26.03;;;2.10;99.90;;;;;;2097553;28;20186;-65
2021/03/10 03:57:32;;;;;;;44.13;24.50;;;2.10;99.90;;;;;;2097533;28;20667;-65
2021/03/10 03:58:33;;;;;;;41.60;23.77;;;2.00;99.90;;;;;;2097666;28;20187;-65
2021/03/10 03:59:35;;;;;;;49.50;26.87;;;2.00;99.90;;;;;;2093478;28;20265;-65
2021/03/10 04:00:36;;;;;;;45.30;26.48;;;2.00;99.90;;;;;;2097537;28;20181;-65
2021/03/10 04:01:36;;;;;;;41.73;25.17;;;2.00;99.90;;;;;;2096845;28;20559;-65
2021/03/10 04:02:37;;;;;;;46.90;25.83;;;2.00;99.90;;;;;;2097664;28;20187;-65
2021/03/10 04:03:38;;;;;;;50.15;27.27;;;2.00;99.90;;;;;;2097247;28;20305;-65
2021/03/10 04:04:39;;;;;;;48.97;27.00;;;2.00;99.90;;;;;;2097482;28;20801;-65
2021/03/10 04:05:39;;;;;;;43.77;24.23;;;2.00;99.90;;;;;;2097435;28;20176;-65
2021/03/10 04:06:46;;;;;;;46.50;25.67;;;2.10;99.90;;;;;;2097578;28;20228;-65
2021/03/10 04:07:54;;;;;;;40.00;23.20;;;2.10;99.90;;;;;;2098505;28;20223;-65
2021/03/10 04:08:55;;;;;;;39.47;24.88;;;2.10;99.90;;;;;;2099215;28;20178;-65
2021/03/10 04:09:56;;;;;;;46.03;25.63;;;2.10;99.90;;;;;;2099194;28;20641;-65
2021/03/10 04:10:56;;;;;;;43.53;25.07;;;2.10;99.90;;;;;;2098672;28;20180;-65
2021/03/10 04:11:57;;;;;;;41.70;24.70;;;2.20;99.90;;;;;;2099007;28;20631;-65
2021/03/10 04:12:59;;;;;;;44.80;23.57;;;2.10;99.90;;;;;;2099142;28;20209;-65
2021/03/10 04:14:00;;;;;;;43.42;25.33;;;2.10;99.90;;;;;;2090149;28;20185;-65
2021/03/10 04:15:01;;;;;;;42.33;24.77;;;2.10;99.90;;;;;;2090172;28;20259;-65
2021/03/10 04:16:01;;;;;;;46.90;26.37;;;2.10;99.90;;;;;;2099006;28;20210;-65
2021/03/10 04:17:02;;;;;;;41.17;25.53;;;2.10;99.90;;;;;;2099302;28;20229;-65
2021/03/10 04:18:04;;;;;;;42.30;24.33;;;2.10;99.90;;;;;;2099032;28;20227;-65
2021/03/10 04:19:06;;;;;;;43.20;24.70;;;2.10;99.90;;;;;;2099125;28;20176;-65
2021/03/10 04:20:14;;;;;;;44.38;24.65;;;2.10;99.90;;;;;;2098280;28;20576;-65
2021/03/10 04:21:14;;;;;;;45.92;25.60;;;2.10;99.90;;;;;;2089593;28;20174;-65
2021/03/10 04:22:15;;;;;;;40.67;24.03;;;2.10;99.90;;;;;;2082092;28;20175;-65
2021/03/10 04:23:16;;;;;;;44.20;25.13;;;2.10;99.90;;;;;;2090206;28;20199;-65
2021/03/10 04:24:17;;;;;;;42.57;25.17;;;2.10;99.90;;;;;;2090312;28;20184;-65
2021/03/10 04:25:17;;;;;;;42.60;24.37;;;2.10;99.90;;;;;;2089862;28;20709;-65
2021/03/10 04:26:18;;;;;;;43.00;25.30;;;2.10;99.90;;;;;;2090188;28;20183;-65
2021/03/10 04:27:19;;;;;;;46.70;25.63;;;2.10;99.90;;;;;;2090166;28;20423;-65
2021/03/10 04:28:20;;;;;;;43.70;24.17;;;2.10;99.90;;;;;;2090222;28;20736;-65
2021/03/10 04:29:21;;;;;;;46.00;26.00;;;2.00;99.90;;;;;;2090358;28;20263;-65
2021/03/10 04:30:22;;;;;;;44.53;25.10;;;2.00;99.90;;;;;;2098861;28;20176;-65
2021/03/10 04:31:23;;;;;;;50.58;26.52;;;2.00;99.90;;;;;;2089669;28;20180;-65
2021/03/10 04:32:24;;;;;;;46.73;26.23;;;1.90;99.90;;;;;;2090112;28;20191;-65
2021/03/10 04:33:25;;;;;;;45.90;25.80;;;1.90;99.90;;;;;;2099216;28;20176;-65
2021/03/10 04:34:26;;;;;;;41.33;24.40;;;1.90;99.90;;;;;;2099271;28;20179;-65
2021/03/10 04:35:27;;;;;;;44.47;24.63;;;1.80;99.90;;;;;;2098968;28;20569;-65
2021/03/10 04:36:27;;;;;;;45.73;25.83;;;1.80;99.90;;;;;;2099096;28;20168;-65
2021/03/10 04:37:28;;;;;;;43.83;24.83;;;1.80;99.90;;;;;;2099114;28;20190;-65
2021/03/10 04:38:29;;;;;;;41.10;24.97;;;1.70;99.90;;;;;;2099146;28;20190;-65
2021/03/10 04:39:30;;;;;;;43.27;24.37;;;1.70;99.90;;;;;;2098986;28;20241;-65
2021/03/10 04:40:30;;;;;;;41.80;25.07;;;1.80;99.90;;;;;;2099120;28;20210;-65
2021/03/10 04:41:31;;;;;;;39.27;22.97;;;1.70;99.90;;;;;;2098389;28;20183;-65
2021/03/10 04:42:32;;;;;;;43.87;24.87;;;1.70;99.90;;;;;;2099208;28;20182;-65
2021/03/10 04:43:33;;;;;;;40.40;23.55;;;1.70;99.90;;;;;;2098955;28;20179;-65
2021/03/10 04:44:34;;;;;;;41.73;23.00;;;1.80;99.90;;;;;;2099001;28;20182;-65
2021/03/10 04:45:34;;;;;;;45.63;24.30;;;1.80;99.90;;;;;;2098685;28;20210;-65
2021/03/10 04:46:35;;;;;;;43.90;24.60;;;1.80;99.90;;;;;;2098716;28;20537;-65
2021/03/10 04:47:36;;;;;;;41.23;23.17;;;1.80;99.90;;;;;;2098580;28;20187;-65
2021/03/10 04:48:37;;;;;;;42.83;23.33;;;1.80;99.90;;;;;;2098797;28;20191;-65
2021/03/10 04:49:37;;;;;;;41.03;23.17;;;1.80;99.90;;;;;;2098531;28;20184;-65
2021/03/10 04:50:38;;;;;;;38.87;22.53;;;1.80;99.90;;;;;;2098740;28;20712;-65
2021/03/10 04:51:39;;;;;;;39.07;23.13;;;1.80;99.90;;;;;;2097705;28;20213;-65
2021/03/10 04:52:40;;;;;;;36.63;21.60;;;1.80;99.90;;;;;;2098652;28;20730;-65
2021/03/10 04:53:40;;;;;;;37.85;21.63;;;1.80;99.90;;;;;;2098462;28;20273;-65
2021/03/10 04:54:41;;;;;;;38.87;21.43;;;1.80;99.90;;;;;;2098610;28;20190;-65
2021/03/10 04:55:42;;;;;;;39.90;23.20;;;1.80;99.90;;;;;;2098418;28;20222;-65
2021/03/10 04:56:43;;;;;;;36.40;22.57;;;1.80;99.90;;;;;;2098732;28;20282;-65
2021/03/10 04:57:43;;;;;;;35.00;20.50;;;1.70;99.90;;;;;;2098327;28;20421;-65
2021/03/10 04:58:44;;;;;;;35.23;20.33;;;1.70;99.90;;;;;;2098668;28;20211;-65
2021/03/10 04:59:45;;;;;;;37.47;22.97;;;1.70;99.90;;;;;;2098425;28;20707;-65
2021/03/10 05:00:45;;;;;;;38.07;21.30;;;1.70;99.90;;;;;;2098506;28;20202;-65
2021/03/10 05:01:46;;;;;;;39.73;22.20;;;1.70;99.90;;;;;;2097986;28;20616;-65
2021/03/10 05:02:47;;;;;;;35.10;21.27;;;1.70;99.90;;;;;;2098529;28;20549;-65
2021/03/10 05:03:48;;;;;;;34.47;21.93;;;1.70;99.90;;;;;;2098404;28;20907;-65
2021/03/10 05:04:48;;;;;;;36.13;21.87;;;1.70;99.90;;;;;;2098534;28;20172;-65
2021/03/10 05:05:49;;;;;;;33.53;20.47;;;1.70;99.90;;;;;;2098323;28;20178;-65
2021/03/10 05:06:50;;;;;;;36.37;21.17;;;1.80;99.90;;;;;;2098591;28;20227;-65
2021/03/10 05:07:50;;;;;;;33.40;21.20;;;1.80;99.90;;;;;;2098228;28;20215;-65
2021/03/10 05:08:51;;;;;;;38.50;21.33;;;1.80;99.90;;;;;;2098561;28;20328;-65
2021/03/10 05:09:52;;;;;;;34.30;20.33;;;1.80;99.90;;;;;;2098284;28;20236;-65
2021/03/10 05:10:52;;;;;;;31.67;19.87;;;1.90;99.90;;;;;;2097998;28;20175;-65
2021/03/10 05:11:53;;;;;;;33.30;21.03;;;1.90;99.90;;;;;;2098372;28;20642;-65
2021/03/10 05:12:54;;;;;;;31.67;19.23;;;1.90;99.90;;;;;;2098593;28;20170;-65
2021/03/10 05:13:54;;;;;;;32.80;19.27;;;1.90;99.90;;;;;;2098198;28;20175;-65
2021/03/10 05:14:57;;;;;;;33.57;19.40;;;2.00;99.90;;;;;;2098253;28;20554;-65
2021/03/10 05:15:58;;;;;;;33.63;19.63;;;2.00;99.90;;;;;;2089473;28;20164;-65
2021/03/10 05:16:58;;;;;;;29.77;18.80;;;2.00;99.90;;;;;;2089732;28;20282;-65
2021/03/10 05:17:59;;;;;;;35.50;19.93;;;2.00;99.90;;;;;;2098180;28;20278;-65
2021/03/10 05:19:00;;;;;;;33.33;19.33;;;2.00;99.90;;;;;;2098157;28;20213;-65
2021/03/10 05:20:03;;;;;;;35.73;20.43;;;2.00;99.90;;;;;;2098471;28;20175;-65
2021/03/10 05:21:04;;;;;;;33.97;19.90;;;2.00;99.90;;;;;;2088799;28;20606;-65
2021/03/10 05:22:04;;;;;;;31.92;18.80;;;2.00;99.90;;;;;;2081293;28;20250;-65